createdAt,value
2023-02-24T00:00:34.277Z,7.55
2023-02-24T00:03:11.511Z,7.51
2023-02-24T00:05:44.738Z,7.57
2023-02-24T00:08:13.986Z,7.58
2023-02-24T00:10:43.156Z,7.48
2023-02-24T00:13:13.607Z,7.61
2023-02-24T00:15:43.025Z,7.57
2023-02-24T00:18:12.162Z,7.48
2023-02-24T00:20:41.373Z,7.45
2023-02-24T00:23:11.143Z,7.47
2023-02-24T00:25:40.199Z,7.48
2023-02-24T00:28:09.310Z,7.51
2023-02-24T00:30:40.201Z,7.43
2023-02-24T00:33:12.659Z,7.30
2023-02-24T00:35:41.769Z,7.39
2023-02-24T00:38:13.379Z,7.36
2023-02-24T00:40:45.511Z,7.17
2023-02-24T00:43:14.590Z,7.29
2023-02-24T00:45:45.114Z,7.38
2023-02-24T00:48:15.590Z,7.37
2023-02-24T00:50:45.041Z,7.27
2023-02-24T00:53:14.192Z,7.22
2023-02-24T00:55:43.312Z,7.22
2023-02-24T00:58:12.425Z,7.27
2023-02-24T01:00:43.688Z,7.22
2023-02-24T01:03:14.233Z,7.27
2023-02-24T01:05:43.327Z,7.34
2023-02-24T01:08:14.085Z,7.23
2023-02-24T01:11:06.422Z,7.21
2023-02-24T01:13:34.414Z,7.23
2023-02-24T01:16:03.477Z,7.13
2023-02-24T01:18:33.876Z,7.20
2023-02-24T01:21:03.064Z,7.17
2023-02-24T01:23:32.434Z,7.29
2023-02-24T01:26:05.600Z,7.14
2023-02-24T01:28:34.788Z,7.15
2023-02-24T01:31:05.585Z,7.23
2023-02-24T01:33:37.762Z,7.18
2023-02-24T01:36:11.595Z,7.11
2023-02-24T01:38:43.084Z,7.11
2023-02-24T01:41:17.022Z,7.04
2023-02-24T01:44:03.722Z,7.10
2023-02-24T01:46:34.942Z,7.09
2023-02-24T01:49:09.794Z,7.08
2023-02-24T01:51:43.876Z,7.12
2023-02-24T01:54:16.373Z,7.08
2023-02-24T01:56:49.015Z,7.12
2023-02-24T01:59:23.780Z,7.12
2023-02-24T02:02:04.737Z,7.09
2023-02-24T02:04:42.928Z,7.17
2023-02-24T02:07:14.139Z,6.89
2023-02-24T02:09:45.233Z,7.06
2023-02-24T02:12:15.410Z,6.86
2023-02-24T02:14:48.417Z,6.90
2023-02-24T02:17:27.537Z,6.99
2023-02-24T02:20:24.266Z,6.88
2023-02-24T02:23:30.082Z,6.87
2023-02-24T02:26:19.045Z,6.86
2023-02-24T02:29:28.989Z,6.77
2023-02-24T02:32:25.263Z,6.72
2023-02-24T02:34:58.477Z,6.75
2023-02-24T02:37:33.210Z,6.69
2023-02-24T02:40:17.472Z,6.66
2023-02-24T02:42:50.709Z,6.68
2023-02-24T02:45:26.110Z,6.69
2023-02-24T02:48:00.931Z,6.69
2023-02-24T02:50:39.056Z,6.65
2023-02-24T02:53:13.743Z,6.68
2023-02-24T02:55:47.577Z,6.69
2023-02-24T02:58:20.994Z,6.75
2023-02-24T03:01:02.317Z,6.81
2023-02-24T03:03:34.325Z,6.73
2023-02-24T03:06:08.049Z,6.61
2023-02-24T03:08:41.440Z,6.62
2023-02-24T03:11:16.663Z,6.71
2023-02-24T03:13:50.161Z,6.55
2023-02-24T03:16:21.288Z,6.68
2023-02-24T03:18:55.154Z,6.65
2023-02-24T03:21:33.618Z,6.59
2023-02-24T03:24:05.896Z,6.60
2023-02-24T03:26:43.309Z,6.66
2023-02-24T03:29:19.428Z,6.58
2023-02-24T03:31:51.868Z,6.51
2023-02-24T03:34:29.011Z,6.47
2023-02-24T03:37:00.419Z,6.41
2023-02-24T03:39:30.836Z,6.43
2023-02-24T03:42:14.413Z,6.53
2023-02-24T03:44:44.334Z,6.36
2023-02-24T03:47:15.417Z,6.26
2023-02-24T03:49:45.606Z,6.39
2023-02-24T03:52:32.705Z,6.40
2023-02-24T03:55:22.480Z,6.41
2023-02-24T03:58:05.640Z,6.37
2023-02-24T04:00:47.898Z,6.26
2023-02-24T04:03:28.228Z,6.28
2023-02-24T04:06:14.527Z,6.22
2023-02-24T04:08:52.602Z,6.19
2023-02-24T04:11:29.329Z,6.28
2023-02-24T04:14:06.709Z,6.28
2023-02-24T04:16:43.388Z,6.35
2023-02-24T04:19:18.116Z,6.29
2023-02-24T04:21:51.367Z,6.25
2023-02-24T04:24:31.779Z,6.35
2023-02-24T04:27:07.824Z,6.40
2023-02-24T04:29:57.131Z,6.27
2023-02-24T04:32:29.699Z,6.43
2023-02-24T04:35:04.335Z,6.34
2023-02-24T04:37:34.241Z,6.06
2023-02-24T04:40:10.880Z,6.25
2023-02-24T04:42:46.757Z,6.34
2023-02-24T04:45:17.943Z,6.37
2023-02-24T04:47:49.698Z,6.37
2023-02-24T04:50:24.279Z,6.42
2023-02-24T04:52:54.691Z,6.30
2023-02-24T04:55:29.673Z,6.45
2023-02-24T04:57:59.283Z,6.32
2023-02-24T05:00:33.825Z,6.36
2023-02-24T05:03:05.680Z,6.37
2023-02-24T05:05:35.848Z,6.41
2023-02-24T05:08:08.046Z,6.40
2023-02-24T05:10:41.150Z,6.47
2023-02-24T05:13:11.415Z,6.34
2023-02-24T05:15:43.195Z,6.43
2023-02-24T05:18:17.375Z,6.60
2023-02-24T05:21:05.817Z,6.56
2023-02-24T05:23:39.483Z,6.37
2023-02-24T05:26:10.638Z,6.46
2023-02-24T05:28:41.995Z,6.29
2023-02-24T05:31:15.287Z,6.45
2023-02-24T05:33:45.859Z,6.41
2023-02-24T05:36:18.123Z,6.40
2023-02-24T05:38:48.556Z,6.51
2023-02-24T05:41:20.228Z,6.48
2023-02-24T05:43:55.049Z,6.24
2023-02-24T05:46:28.544Z,6.28
2023-02-24T05:48:58.515Z,6.43
2023-02-24T05:51:28.381Z,6.40
2023-02-24T05:53:58.177Z,6.50
2023-02-24T05:56:28.972Z,6.57
2023-02-24T05:59:02.362Z,6.44
2023-02-24T06:01:32.798Z,6.39
2023-02-24T06:04:06.174Z,6.43
2023-02-24T06:06:36.630Z,6.34
2023-02-24T06:09:10.970Z,6.37
2023-02-24T06:11:43.398Z,6.44
2023-02-24T06:14:14.319Z,6.29
2023-02-24T06:16:46.201Z,6.42
2023-02-24T06:19:18.930Z,6.31
2023-02-24T06:21:48.650Z,6.39
2023-02-24T06:24:18.803Z,6.49
2023-02-24T06:26:50.440Z,6.46
2023-02-24T06:29:19.688Z,6.44
2023-02-24T06:31:49.548Z,6.36
2023-02-24T06:34:19.777Z,6.40
2023-02-24T06:36:49.415Z,6.57
2023-02-24T06:39:18.652Z,6.57
2023-02-24T06:41:51.876Z,6.54
2023-02-24T06:44:20.659Z,6.52
2023-02-24T06:46:50.381Z,6.26
2023-02-24T06:49:19.948Z,6.32
2023-02-24T06:51:48.999Z,6.37
2023-02-24T06:54:19.377Z,6.41
2023-02-24T06:56:49.938Z,6.50
2023-02-24T06:59:21.998Z,6.55
2023-02-24T07:01:51.143Z,6.41
2023-02-24T07:04:21.156Z,6.34
2023-02-24T07:06:52.678Z,6.31
2023-02-24T07:09:24.268Z,6.31
2023-02-24T07:11:57.036Z,6.20
2023-02-24T07:14:27.903Z,6.30
2023-02-24T07:16:58.513Z,6.45
2023-02-24T07:19:29.427Z,6.42
2023-02-24T07:22:02.293Z,6.59
2023-02-24T07:24:37.405Z,6.56
2023-02-24T07:27:10.168Z,6.63
2023-02-24T07:29:39.636Z,6.57
2023-02-24T07:32:10.823Z,6.63
2023-02-24T07:34:41.104Z,6.61
2023-02-24T07:37:11.175Z,6.67
2023-02-24T07:39:40.941Z,6.82
2023-02-24T07:42:14.076Z,6.86
2023-02-24T07:44:49.522Z,6.92
2023-02-24T07:47:18.686Z,6.95
2023-02-24T07:49:47.864Z,7.09
2023-02-24T07:52:16.921Z,7.07
2023-02-24T07:54:46.042Z,6.95
2023-02-24T07:57:19.130Z,7.01
2023-02-24T07:59:48.534Z,6.84
2023-02-24T08:02:18.615Z,7.08
2023-02-24T08:04:51.765Z,7.13
2023-02-24T08:07:25.389Z,7.07
2023-02-24T08:10:12.374Z,7.02
2023-02-24T08:12:44.412Z,7.19
2023-02-24T08:15:24.396Z,7.18
2023-02-24T08:17:59.793Z,7.27
2023-02-24T08:20:30.287Z,7.22
2023-02-24T08:22:59.441Z,7.49
2023-02-24T08:25:36.670Z,7.68
2023-02-24T08:28:11.873Z,7.50
2023-02-24T08:30:46.252Z,7.72
2023-02-24T08:33:23.348Z,7.69
2023-02-24T08:36:01.974Z,7.96
2023-02-24T08:38:42.355Z,7.87
2023-02-24T08:41:18.580Z,7.99
2023-02-24T08:43:50.491Z,8.01
2023-02-24T08:46:26.943Z,8.05
2023-02-24T08:48:58.269Z,8.12
2023-02-24T08:51:30.317Z,8.06
2023-02-24T08:54:02.662Z,8.23
2023-02-24T08:56:35.148Z,8.24
2023-02-24T08:59:07.519Z,8.20
2023-02-24T09:01:38.507Z,8.11
2023-02-24T09:04:10.529Z,8.24
2023-02-24T09:06:44.478Z,8.22
2023-02-24T09:09:19.235Z,8.14
2023-02-24T09:11:49.746Z,7.97
2023-02-24T09:14:27.226Z,8.07
2023-02-24T09:17:05.766Z,8.00
2023-02-24T09:20:02.447Z,7.90
2023-02-24T09:22:33.440Z,7.93
2023-02-24T09:25:21.595Z,7.73
2023-02-24T09:27:57.378Z,7.99
2023-02-24T09:30:39.514Z,7.93
2023-02-24T09:33:21.090Z,8.12
2023-02-24T09:35:53.449Z,8.17
2023-02-24T09:38:45.636Z,8.12
2023-02-24T09:41:53.888Z,8.09
2023-02-24T09:44:28.747Z,8.63
2023-02-24T09:47:09.382Z,9.32
2023-02-24T09:49:48.447Z,9.97
2023-02-24T09:52:19.724Z,10.14
2023-02-24T09:55:11.225Z,10.26
2023-02-24T09:58:16.684Z,10.26
2023-02-24T10:00:56.094Z,10.53
2023-02-24T10:03:46.400Z,10.81
2023-02-24T10:06:21.111Z,10.41
2023-02-24T10:08:56.187Z,10.96
2023-02-24T10:11:34.300Z,11.47
2023-02-24T10:14:07.400Z,11.52
2023-02-24T10:16:46.623Z,11.46
2023-02-24T10:19:28.217Z,11.40
2023-02-24T10:22:04.670Z,11.38
2023-02-24T10:24:41.486Z,11.00
2023-02-24T10:27:17.903Z,11.17
2023-02-24T10:30:06.049Z,10.97
2023-02-24T10:32:47.537Z,10.83
2023-02-24T10:35:20.532Z,11.09
2023-02-24T10:37:50.742Z,10.93
2023-02-24T10:40:26.733Z,10.59
2023-02-24T10:43:10.939Z,10.69
2023-02-24T10:45:45.650Z,10.55
2023-02-24T10:48:40.710Z,10.68
2023-02-24T10:51:22.187Z,10.75
2023-02-24T10:54:10.428Z,10.74
2023-02-24T10:56:45.083Z,11.00
2023-02-24T10:59:41.690Z,10.49
2023-02-24T11:02:30.096Z,10.18
2023-02-24T11:05:27.000Z,10.60
2023-02-24T11:08:15.992Z,11.21
2023-02-24T11:10:59.073Z,12.11
2023-02-24T11:13:45.539Z,12.17
2023-02-24T11:16:31.987Z,11.61
2023-02-24T11:19:01.165Z,11.72
2023-02-24T11:21:32.195Z,11.62
2023-02-24T11:24:03.729Z,11.31
2023-02-24T11:26:37.530Z,11.35
2023-02-24T11:29:28.040Z,10.84
2023-02-24T11:32:17.266Z,10.93
2023-02-24T11:34:54.574Z,11.07
2023-02-24T11:37:38.043Z,11.23
2023-02-24T11:40:12.218Z,11.18
2023-02-24T11:42:46.406Z,11.19
2023-02-24T11:45:26.774Z,11.43
2023-02-24T11:48:00.545Z,12.42
2023-02-24T11:50:43.981Z,13.04
2023-02-24T11:53:19.882Z,12.68
2023-02-24T11:55:59.345Z,13.05
2023-02-24T11:58:36.749Z,13.45
2023-02-24T12:01:14.655Z,13.12
2023-02-24T12:03:52.400Z,13.37
2023-02-24T12:06:30.976Z,13.83
2023-02-24T12:09:09.950Z,14.27
2023-02-24T12:11:50.339Z,14.40
2023-02-24T12:14:29.980Z,14.25
2023-02-24T12:17:08.131Z,14.20
2023-02-24T12:19:42.582Z,13.67
2023-02-24T12:22:16.145Z,13.67
2023-02-24T12:24:50.118Z,13.88
2023-02-24T12:27:35.349Z,13.86
2023-02-24T12:30:34.497Z,14.46
2023-02-24T12:33:20.135Z,14.55
2023-02-24T12:35:58.539Z,14.66
2023-02-24T12:38:41.574Z,14.96
2023-02-24T12:41:29.732Z,15.47
2023-02-24T12:44:09.053Z,15.05
2023-02-24T12:46:40.292Z,15.31
2023-02-24T12:49:38.917Z,15.24
2023-02-24T12:52:20.840Z,14.79
2023-02-24T12:54:56.784Z,14.72
2023-02-24T12:57:33.701Z,14.96
2023-02-24T13:00:12.348Z,14.81
2023-02-24T13:02:54.087Z,14.05
2023-02-24T13:05:31.472Z,13.69
2023-02-24T13:08:20.068Z,13.32
2023-02-24T13:10:52.660Z,13.29
2023-02-24T13:13:28.595Z,13.40
2023-02-24T13:16:01.558Z,13.04
2023-02-24T13:18:32.993Z,13.02
2023-02-24T13:21:08.792Z,12.85
2023-02-24T13:23:42.502Z,12.79
2023-02-24T13:26:12.058Z,12.79
2023-02-24T13:28:41.293Z,12.86
2023-02-24T13:31:14.009Z,12.86
2023-02-24T13:33:45.286Z,12.95
2023-02-24T13:36:17.703Z,13.12
2023-02-24T13:38:48.661Z,12.85
2023-02-24T13:41:41.101Z,12.97
2023-02-24T13:44:29.108Z,12.96
2023-02-24T13:47:20.048Z,12.94
2023-02-24T13:50:03.613Z,13.09
2023-02-24T13:52:48.933Z,13.01
2023-02-24T13:55:31.692Z,13.07
2023-02-24T13:58:20.442Z,13.11
2023-02-24T14:01:03.221Z,12.92
2023-02-24T14:03:35.188Z,12.92
2023-02-24T14:06:08.452Z,12.65
2023-02-24T14:08:45.791Z,12.89
2023-02-24T14:11:18.139Z,12.78
2023-02-24T14:13:51.740Z,12.94
2023-02-24T14:16:24.462Z,13.33
2023-02-24T14:18:57.475Z,13.45
2023-02-24T14:21:28.450Z,13.53
2023-02-24T14:23:59.007Z,13.63
2023-02-24T14:26:29.333Z,13.53
2023-02-24T14:29:02.066Z,13.68
2023-02-24T14:50:18.114Z,12.80
2023-02-24T14:52:51.633Z,12.92
2023-02-24T14:55:23.840Z,12.77
2023-02-24T14:57:59.518Z,12.58
2023-02-24T15:00:33.772Z,12.43
2023-02-24T15:03:07.884Z,12.17
2023-02-24T15:05:46.100Z,11.91
2023-02-24T15:08:28.318Z,12.09
2023-02-24T15:10:58.092Z,11.96
2023-02-24T15:13:35.185Z,11.76
2023-02-24T15:16:13.243Z,11.63
2023-02-24T15:18:43.164Z,11.63
2023-02-24T15:21:22.143Z,11.72
2023-02-24T15:23:59.948Z,11.49
2023-02-24T15:26:31.387Z,11.53
2023-02-24T15:29:02.241Z,11.53
2023-02-24T15:31:32.094Z,11.18
2023-02-24T15:34:03.976Z,11.16
2023-02-24T15:36:37.018Z,11.24
2023-02-24T15:39:09.220Z,11.30
2023-02-24T15:41:43.581Z,11.34
2023-02-24T15:44:27.805Z,11.41
2023-02-24T15:46:57.873Z,11.37
2023-02-24T15:49:27.752Z,11.32
2023-02-24T15:52:01.568Z,11.28
2023-02-24T15:54:33.519Z,11.34
2023-02-24T15:57:05.583Z,11.28
2023-02-24T15:59:34.616Z,11.29
2023-02-24T16:02:06.465Z,11.23
2023-02-24T16:04:35.502Z,11.20
2023-02-24T16:07:08.361Z,11.17
2023-02-24T16:09:41.167Z,10.99
2023-02-24T16:12:15.206Z,11.04
2023-02-24T16:14:45.616Z,10.96
2023-02-24T16:17:23.582Z,10.87
2023-02-24T16:19:52.892Z,10.77
2023-02-24T16:22:23.554Z,10.68
2023-02-24T16:24:52.879Z,10.67
2023-02-24T16:27:24.056Z,10.63
2023-02-24T16:29:53.426Z,10.60
2023-02-24T16:32:23.989Z,10.54
2023-02-24T16:34:53.407Z,10.41
2023-02-24T16:37:25.977Z,10.41
2023-02-24T16:39:55.506Z,10.36
2023-02-24T16:42:33.917Z,10.31
2023-02-24T16:45:03.059Z,10.31
2023-02-24T16:47:35.909Z,10.24
2023-02-24T16:50:08.623Z,10.21
2023-02-24T16:52:39.166Z,10.14
2023-02-24T16:55:13.403Z,10.07
2023-02-24T16:57:43.146Z,10.02
2023-02-24T17:00:15.032Z,10.11
2023-02-24T17:02:48.030Z,10.04
2023-02-24T17:05:19.793Z,10.05
2023-02-24T17:07:51.743Z,9.99
2023-02-24T17:10:21.963Z,9.98
2023-02-24T17:12:51.603Z,9.95
2023-02-24T17:15:22.232Z,9.93
2023-02-24T17:17:51.571Z,9.91
2023-02-24T17:20:22.292Z,9.83
2023-02-24T17:22:52.914Z,9.89
2023-02-24T17:25:24.997Z,9.89
2023-02-24T17:27:55.300Z,9.84
2023-02-24T17:30:27.325Z,9.83
2023-02-24T17:32:56.812Z,9.78
2023-02-24T17:35:26.049Z,9.81
2023-02-24T17:37:56.985Z,9.86
2023-02-24T17:40:30.265Z,9.79
2023-02-24T17:42:59.452Z,9.77
2023-02-24T17:45:28.602Z,9.70
2023-02-24T17:47:57.838Z,9.69
2023-02-24T17:50:27.308Z,9.65
2023-02-24T17:52:58.062Z,9.56
2023-02-24T17:55:27.600Z,9.52
2023-02-24T17:57:57.330Z,9.56
2023-02-24T18:00:27.042Z,9.51
2023-02-24T18:02:56.670Z,9.52
2023-02-24T18:05:25.905Z,9.48
2023-02-24T18:07:58.644Z,9.48
2023-02-24T18:10:28.458Z,9.42
2023-02-24T18:12:57.655Z,9.27
2023-02-24T18:15:26.895Z,9.38
2023-02-24T18:17:56.112Z,9.40
2023-02-24T18:20:26.287Z,9.27
2023-02-24T18:22:57.351Z,9.35
2023-02-24T18:25:26.548Z,9.18
2023-02-24T18:27:55.676Z,9.15
2023-02-24T18:30:24.927Z,9.28
2023-02-24T18:32:54.105Z,9.27
2023-02-24T18:35:23.912Z,9.25
2023-02-24T18:37:56.876Z,9.24
2023-02-24T18:40:28.507Z,9.13
2023-02-24T18:42:57.845Z,9.14
2023-02-24T18:45:26.985Z,9.08
2023-02-24T18:47:56.134Z,9.05
2023-02-24T18:50:25.437Z,8.90
2023-02-24T18:52:54.452Z,8.96
2023-02-24T18:55:23.637Z,8.95
2023-02-24T18:57:54.310Z,8.90
2023-02-24T19:00:24.162Z,8.90
2023-02-24T19:02:53.435Z,8.72
2023-02-24T19:05:22.513Z,8.75
2023-02-24T19:07:51.693Z,8.66
2023-02-24T19:10:20.912Z,8.62
2023-02-24T19:12:51.302Z,8.53
2023-02-24T19:15:22.661Z,8.48
2023-02-24T19:17:51.715Z,8.44
2023-02-24T19:20:21.344Z,8.41
2023-02-24T19:22:51.687Z,8.40
2023-02-24T19:25:23.912Z,8.31
2023-02-24T19:27:54.698Z,8.24
2023-02-24T19:30:25.284Z,8.22
2023-02-24T19:32:54.868Z,8.14
2023-02-24T19:35:24.115Z,8.06
2023-02-24T19:37:53.431Z,8.02
2023-02-24T19:40:23.820Z,7.96
2023-02-24T19:42:53.418Z,7.85
2023-02-24T19:45:22.397Z,7.74
2023-02-24T19:47:52.777Z,7.73
2023-02-24T19:50:22.388Z,7.65
2023-02-24T19:52:51.452Z,7.63
2023-02-24T19:55:20.908Z,7.52
2023-02-24T19:57:54.089Z,7.51
2023-02-24T20:00:23.752Z,7.46
2023-02-24T20:02:54.700Z,7.43
2023-02-24T20:05:25.047Z,7.40
2023-02-24T20:07:54.034Z,7.43
2023-02-24T20:10:23.017Z,7.37
2023-02-24T20:12:52.000Z,7.37
2023-02-24T20:15:21.166Z,7.31
2023-02-24T20:17:50.511Z,7.33
2023-02-24T20:20:21.789Z,7.20
2023-02-24T20:22:51.093Z,7.12
2023-02-24T20:25:20.326Z,7.07
2023-02-24T20:27:49.442Z,6.96
2023-02-24T20:30:18.821Z,6.94
2023-02-24T20:32:48.570Z,6.88
2023-02-24T20:35:17.898Z,6.83
2023-02-24T20:37:49.216Z,6.86
2023-02-24T20:40:18.612Z,6.70
2023-02-24T20:42:47.763Z,6.74
2023-02-24T20:45:16.916Z,6.77
2023-02-24T20:47:45.966Z,6.73
2023-02-24T20:50:15.077Z,6.65
2023-02-24T20:52:44.187Z,6.49
2023-02-24T20:55:14.576Z,6.48
2023-02-24T20:57:43.691Z,6.44
2023-02-24T21:00:15.748Z,6.33
2023-02-24T21:02:44.998Z,6.25
2023-02-24T21:05:23.360Z,6.22
2023-02-24T21:07:52.431Z,6.08
2023-02-24T21:10:25.271Z,6.14
2023-02-24T21:12:54.641Z,6.04
2023-02-24T21:15:23.687Z,6.11
2023-02-24T21:17:52.805Z,6.09
2023-02-24T21:20:22.027Z,5.98
2023-02-24T21:22:50.963Z,5.88
2023-02-24T21:25:20.523Z,5.90
2023-02-24T21:27:50.978Z,5.94
2023-02-24T21:30:20.233Z,5.64
2023-02-24T21:32:49.574Z,5.74
2023-02-24T21:35:18.779Z,5.81
2023-02-24T21:37:47.747Z,5.76
2023-02-24T21:40:17.871Z,5.78
2023-02-24T21:42:47.829Z,5.68
2023-02-24T21:45:19.506Z,5.63
2023-02-24T21:47:49.207Z,5.62
2023-02-24T21:50:18.932Z,5.61
2023-02-24T21:52:48.187Z,5.46
2023-02-24T21:55:19.494Z,5.27
2023-02-24T21:57:48.565Z,5.32
2023-02-24T22:00:20.153Z,5.29
2023-02-24T22:02:50.802Z,5.34
2023-02-24T22:05:20.656Z,5.37
2023-02-24T22:07:51.241Z,5.33
2023-02-24T22:10:22.481Z,5.36
2023-02-24T22:12:52.124Z,5.33
2023-02-24T22:15:22.713Z,5.35
2023-02-24T22:17:51.623Z,5.43
2023-02-24T22:20:20.790Z,5.47
2023-02-24T22:22:49.886Z,5.35
2023-02-24T22:25:18.922Z,5.46
2023-02-24T22:27:48.068Z,5.52
2023-02-24T22:30:17.199Z,5.54
2023-02-24T22:32:47.825Z,5.40
2023-02-24T22:35:17.041Z,5.35
2023-02-24T22:37:46.154Z,5.36
2023-02-24T22:40:15.307Z,5.35
2023-02-24T22:42:44.912Z,5.36
2023-02-24T22:45:13.889Z,5.34
2023-02-24T22:47:42.969Z,5.22
2023-02-24T22:50:14.193Z,5.20
2023-02-24T22:52:43.143Z,4.95
2023-02-24T22:55:12.937Z,5.16
2023-02-24T22:57:42.177Z,5.16
2023-02-24T23:00:20.414Z,5.22
2023-02-24T23:02:49.553Z,5.12
2023-02-24T23:05:19.961Z,5.15
2023-02-24T23:07:49.000Z,5.10
2023-02-24T23:10:18.647Z,5.14
2023-02-24T23:12:48.488Z,5.01
2023-02-24T23:15:17.815Z,5.16
2023-02-24T23:17:46.772Z,5.21
2023-02-24T23:20:16.428Z,5.20
2023-02-24T23:22:46.795Z,5.20
2023-02-24T23:25:15.713Z,5.15
2023-02-24T23:27:44.581Z,5.15
2023-02-24T23:30:13.957Z,5.24
2023-02-24T23:32:44.113Z,5.12
2023-02-24T23:35:13.948Z,5.23
2023-02-24T23:37:43.376Z,5.33
2023-02-24T23:40:15.574Z,5.31
2023-02-24T23:42:46.431Z,5.17
2023-02-24T23:45:15.468Z,5.19
2023-02-24T23:47:44.678Z,5.19
2023-02-24T23:50:15.469Z,5.21
2023-02-24T23:52:44.565Z,5.22
2023-02-24T23:55:15.867Z,5.24
2023-02-24T23:57:44.883Z,5.28
